createdAt,value
2022-12-18T00:04:42.453Z,14.03
2022-12-18T00:09:47.883Z,13.70
2022-12-18T00:14:55.860Z,11.90
2022-12-18T00:20:01.034Z,11.02
2022-12-18T00:25:06.802Z,10.73
2022-12-18T00:30:15.553Z,12.27
2022-12-18T00:35:20.974Z,13.25
2022-12-18T00:40:26.240Z,11.53
2022-12-18T00:45:35.379Z,11.63
2022-12-18T00:50:40.757Z,10.85
2022-12-18T00:55:47.212Z,11.83
2022-12-18T01:00:55.137Z,11.60
2022-12-18T01:06:00.638Z,11.23
2022-12-18T01:11:11.795Z,13.10
2022-12-18T01:16:20.806Z,13.27
2022-12-18T01:21:27.349Z,11.20
2022-12-18T01:26:33.239Z,11.45
2022-12-18T01:31:41.382Z,13.07
2022-12-18T01:36:46.654Z,10.75
2022-12-18T01:42:07.080Z,14.93
2022-12-18T01:47:19.513Z,10.70
2022-12-18T01:52:25.564Z,10.95
2022-12-18T01:57:32.478Z,12.70
2022-12-18T02:02:40.676Z,8.75
2022-12-18T02:07:53.886Z,13.57
2022-12-18T02:13:08.472Z,10.00
2022-12-18T02:18:22.890Z,12.88
2022-12-18T02:23:44.530Z,8.57
2022-12-18T02:28:57.038Z,9.13
2022-12-18T02:34:06.764Z,11.73
2022-12-18T02:39:17.768Z,12.67
2022-12-18T02:44:38.401Z,10.60
2022-12-18T02:49:52.474Z,10.83
2022-12-18T02:55:08.146Z,10.88
2022-12-18T03:00:21.909Z,11.98
2022-12-18T03:05:33.005Z,10.67
2022-12-18T03:10:46.357Z,10.02
2022-12-18T03:15:58.711Z,17.37
2022-12-18T03:21:09.083Z,11.15
2022-12-18T03:26:19.767Z,11.30
2022-12-18T03:31:31.548Z,8.73
2022-12-18T03:36:36.935Z,10.23
2022-12-18T03:41:48.635Z,10.33
2022-12-18T03:47:11.669Z,9.68
2022-12-18T03:52:24.159Z,9.63
2022-12-18T03:57:32.917Z,8.87
2022-12-18T04:02:43.919Z,11.35
2022-12-18T04:07:51.626Z,11.10
2022-12-18T04:12:59.900Z,13.52
2022-12-18T04:18:08.904Z,9.48
2022-12-18T04:23:20.319Z,13.23
2022-12-18T04:28:26.520Z,9.52
2022-12-18T04:33:34.518Z,9.13
2022-12-18T04:38:40.617Z,10.38
2022-12-18T04:43:50.430Z,12.35
2022-12-18T04:48:58.264Z,9.47
2022-12-18T04:54:03.583Z,13.38
2022-12-18T04:59:09.098Z,12.70
2022-12-18T05:04:17.027Z,9.27
2022-12-18T05:09:23.435Z,12.70
2022-12-18T05:14:28.675Z,11.57
2022-12-18T05:19:36.533Z,12.02
2022-12-18T05:24:41.801Z,12.37
2022-12-18T05:29:47.099Z,12.25
2022-12-18T05:34:55.004Z,12.35
2022-12-18T05:40:00.253Z,9.70
2022-12-18T05:45:05.725Z,13.82
2022-12-18T05:50:13.960Z,11.03
2022-12-18T05:55:19.467Z,12.13
2022-12-18T06:00:24.990Z,11.40
2022-12-18T06:05:32.964Z,14.13
2022-12-18T06:10:38.361Z,12.52
2022-12-18T06:15:43.662Z,12.73
2022-12-18T06:20:58.447Z,10.82
2022-12-18T06:26:07.974Z,11.75
2022-12-18T06:31:13.949Z,11.23
2022-12-18T06:36:22.039Z,11.73
2022-12-18T06:41:27.559Z,15.20
2022-12-18T06:46:33.271Z,9.20
2022-12-18T06:51:41.316Z,10.02
2022-12-18T06:56:48.957Z,13.50
2022-12-18T07:01:54.547Z,9.52
2022-12-18T07:07:02.574Z,9.50
2022-12-18T07:12:09.070Z,9.63
2022-12-18T07:17:14.372Z,10.35
2022-12-18T07:22:22.281Z,11.90
2022-12-18T07:27:27.874Z,11.15
2022-12-18T07:32:34.294Z,9.57
2022-12-18T07:37:42.102Z,14.02
2022-12-18T07:42:47.395Z,17.88
2022-12-18T07:47:52.725Z,12.90
2022-12-18T07:53:04.478Z,10.70
2022-12-18T07:58:09.739Z,12.20
2022-12-18T08:03:17.816Z,9.25
2022-12-18T08:08:26.690Z,9.80
2022-12-18T08:13:32.504Z,12.07
2022-12-18T08:18:38.497Z,13.55
2022-12-18T08:23:47.749Z,10.33
2022-12-18T08:28:55.066Z,11.43
2022-12-18T08:34:00.968Z,15.07
2022-12-18T08:39:09.649Z,11.47
2022-12-18T08:44:27.783Z,17.17
2022-12-18T08:49:33.904Z,11.67
2022-12-18T08:54:41.849Z,14.40
2022-12-18T08:59:47.096Z,12.30
2022-12-18T09:04:57.102Z,11.43
2022-12-18T09:10:05.683Z,12.75
2022-12-18T09:15:11.661Z,15.23
2022-12-18T09:20:16.937Z,14.85
2022-12-18T09:25:25.979Z,12.85
2022-12-18T09:30:34.294Z,14.50
2022-12-18T09:35:40.940Z,14.40
2022-12-18T09:40:52.066Z,14.10
2022-12-18T09:46:02.996Z,13.93
2022-12-18T09:51:16.437Z,12.25
2022-12-18T09:56:26.818Z,13.13
2022-12-18T10:01:41.453Z,13.57
2022-12-18T10:06:56.289Z,14.97
2022-12-18T10:12:13.038Z,15.80
2022-12-18T10:17:27.405Z,13.95
2022-12-18T10:22:46.955Z,12.00
2022-12-18T10:27:59.109Z,15.60
2022-12-18T10:33:05.628Z,11.77
2022-12-18T10:38:26.116Z,12.75
2022-12-18T10:43:36.000Z,11.98
2022-12-18T10:48:51.112Z,13.67
2022-12-18T10:54:00.370Z,12.52
2022-12-18T10:59:10.960Z,10.60
2022-12-18T11:04:21.849Z,14.90
2022-12-18T11:09:28.716Z,14.02
2022-12-18T11:14:47.367Z,10.13
2022-12-18T11:19:56.912Z,13.80
2022-12-18T11:25:33.467Z,11.90
2022-12-18T11:30:36.940Z,12.63
2022-12-18T11:35:51.634Z,13.60
2022-12-18T11:41:04.748Z,12.80
2022-12-18T11:46:19.810Z,12.80
2022-12-18T11:51:32.030Z,13.07
2022-12-18T11:56:41.648Z,16.33
2022-12-18T12:01:56.397Z,15.23
2022-12-18T12:07:11.550Z,10.93
2022-12-18T12:12:48.669Z,14.80
2022-12-18T12:18:00.976Z,16.03
2022-12-18T12:23:22.485Z,19.25
2022-12-18T12:28:48.458Z,14.77
2022-12-18T12:34:07.535Z,13.57
2022-12-18T12:39:17.498Z,15.43
2022-12-18T12:44:27.199Z,16.30
2022-12-18T12:49:40.597Z,15.85
2022-12-18T12:54:47.372Z,16.67
2022-12-18T13:00:02.773Z,19.07
2022-12-18T13:05:19.026Z,18.80
2022-12-18T13:10:34.658Z,18.10
2022-12-18T13:15:46.273Z,17.15
2022-12-18T13:21:07.641Z,16.80
2022-12-18T13:26:37.084Z,19.00
2022-12-18T13:32:25.405Z,19.65
2022-12-18T13:37:56.182Z,19.10
2022-12-18T13:43:14.369Z,20.65
2022-12-18T13:48:27.988Z,21.90
2022-12-18T13:53:40.689Z,19.20
2022-12-18T13:58:47.125Z,18.63
2022-12-18T14:03:52.422Z,23.30
2022-12-18T14:09:00.968Z,19.70
2022-12-18T14:14:08.479Z,18.17
2022-12-18T14:19:18.367Z,23.03
2022-12-18T14:24:26.237Z,26.90
2022-12-18T14:29:33.182Z,19.13
2022-12-18T14:34:38.433Z,19.92
2022-12-18T14:39:56.196Z,22.98
2022-12-18T14:45:41.746Z,21.47
2022-12-18T14:50:48.356Z,21.25
2022-12-18T14:55:59.536Z,22.27
2022-12-18T15:01:05.077Z,27.52
2022-12-18T15:06:21.221Z,21.63
2022-12-18T15:11:49.683Z,22.27
2022-12-18T15:16:57.179Z,22.15
2022-12-18T15:22:06.346Z,22.50
2022-12-18T15:27:28.649Z,23.70
2022-12-18T15:32:33.948Z,22.65
2022-12-18T15:37:40.454Z,24.90
2022-12-18T15:43:03.760Z,26.50
2022-12-18T15:48:21.709Z,16.77
2022-12-18T15:53:33.983Z,23.00
2022-12-18T15:58:46.039Z,28.60
2022-12-18T16:03:51.587Z,23.77
2022-12-18T16:08:57.184Z,23.08
2022-12-18T16:14:05.141Z,24.73
2022-12-18T16:19:10.507Z,21.95
2022-12-18T16:24:19.810Z,26.90
2022-12-18T16:29:35.308Z,24.93
2022-12-18T16:34:41.199Z,27.02
2022-12-18T16:39:47.048Z,26.57
2022-12-18T16:44:55.065Z,25.75
2022-12-18T16:50:00.316Z,28.02
2022-12-18T16:55:06.777Z,33.27
2022-12-18T17:00:16.581Z,30.65
2022-12-18T17:05:22.075Z,30.50
2022-12-18T17:10:27.643Z,32.33
2022-12-18T17:15:38.192Z,30.70
2022-12-18T17:20:43.512Z,24.13
2022-12-18T17:25:48.773Z,26.95
2022-12-18T17:30:56.990Z,29.57
2022-12-18T17:36:02.647Z,32.63
2022-12-18T17:41:10.454Z,28.58
2022-12-18T17:46:18.347Z,32.07
2022-12-18T17:51:24.826Z,32.88
2022-12-18T17:56:30.176Z,30.03
2022-12-18T18:01:44.402Z,33.05
2022-12-18T18:06:50.707Z,34.63
2022-12-18T18:12:08.461Z,30.03
2022-12-18T18:17:16.344Z,27.88
2022-12-18T18:22:21.844Z,35.33
2022-12-18T18:27:28.388Z,35.45
2022-12-18T18:32:39.703Z,28.67
2022-12-18T18:37:45.036Z,36.33
2022-12-18T18:42:50.366Z,36.55
2022-12-18T18:47:58.982Z,36.63
2022-12-18T18:53:06.460Z,36.17
2022-12-18T18:58:11.703Z,36.35
2022-12-18T19:03:21.065Z,36.97
2022-12-18T19:08:28.876Z,38.10
2022-12-18T19:13:36.463Z,40.43
2022-12-18T19:18:46.472Z,36.80
2022-12-18T19:23:52.419Z,35.35
2022-12-18T19:29:03.658Z,34.63
2022-12-18T19:34:12.723Z,40.50
2022-12-18T19:39:20.105Z,35.90
2022-12-18T19:44:25.701Z,37.85
2022-12-18T19:49:34.241Z,37.10
2022-12-18T19:54:40.088Z,37.20
2022-12-18T19:59:46.068Z,43.47
2022-12-18T20:04:56.615Z,39.80
2022-12-18T20:10:08.646Z,37.38
2022-12-18T20:15:15.057Z,33.88
2022-12-18T20:20:23.310Z,32.37
2022-12-18T20:25:29.216Z,35.75
2022-12-18T20:30:36.909Z,33.90
2022-12-18T20:35:45.340Z,37.35
2022-12-18T20:40:52.022Z,34.17
2022-12-18T20:46:03.814Z,30.60
2022-12-18T20:51:14.616Z,37.38
2022-12-18T20:56:22.141Z,41.40
2022-12-18T21:01:28.209Z,33.60
2022-12-18T21:06:36.939Z,39.22
2022-12-18T21:11:54.970Z,36.37
2022-12-18T21:17:02.063Z,32.55
2022-12-18T21:22:10.080Z,33.40
2022-12-18T21:27:17.834Z,31.13
2022-12-18T21:32:23.664Z,35.95
2022-12-18T21:37:33.078Z,33.07
2022-12-18T21:42:50.777Z,36.38
2022-12-18T21:47:56.019Z,36.10
2022-12-18T21:53:04.109Z,35.33
2022-12-18T21:58:09.406Z,35.13
2022-12-18T22:03:18.521Z,39.00
2022-12-18T22:08:27.383Z,40.10
2022-12-18T22:13:32.656Z,42.50
2022-12-18T22:18:37.872Z,39.28
2022-12-18T22:23:45.691Z,37.42
2022-12-18T22:29:15.470Z,42.40
2022-12-18T22:34:23.230Z,31.98
2022-12-18T22:39:32.840Z,38.80
2022-12-18T22:44:38.163Z,38.90
2022-12-18T22:49:43.480Z,40.67
2022-12-18T22:54:51.295Z,39.23
2022-12-18T22:59:58.836Z,36.03
2022-12-18T23:05:04.382Z,38.23
2022-12-18T23:10:13.180Z,41.70
2022-12-18T23:15:18.914Z,38.20
2022-12-18T23:20:28.490Z,44.43
2022-12-18T23:25:36.340Z,35.35
2022-12-18T23:30:41.639Z,41.53
2022-12-18T23:35:46.918Z,37.40
2022-12-18T23:40:56.322Z,30.85
2022-12-18T23:46:02.187Z,39.63
2022-12-18T23:51:09.582Z,40.38
2022-12-18T23:56:17.448Z,42.47
